Time;durP1;ratioP1;P1;durP2;ratioP2;P2;SDS_P1;SDS_P2;PMS_P1;PMS_P2;Temp;Humidity;BMP_temperature;BMP_pressure;BME280_temperature;BME280_humidity;BME280_pressure;Samples;Min_cycle;Max_cycle;Signal;HPM_P1;HPM_P2
2022/12/28 00:01:51;;;;;;;11.00;5.87;;;;;;;;;;5030534;28;20280;-77
2022/12/28 00:04:18;;;;;;;6.80;5.03;;;;;;;;;;5030928;28;20666;-77
2022/12/28 00:06:49;;;;;;;6.87;4.77;;;;;;;;;;5030730;28;20238;-77
2022/12/28 00:09:16;;;;;;;5.60;4.87;;;;;;;;;;5030858;28;20277;-77
2022/12/28 00:11:43;;;;;;;8.70;5.33;;;;;;;;;;5030457;28;20623;-77
2022/12/28 00:14:11;;;;;;;6.13;4.70;;;;;;;;;;5031227;28;20207;-77
2022/12/28 00:16:39;;;;;;;9.30;5.27;;;;;;;;;;5030684;28;20246;-76
2022/12/28 00:19:09;;;;;;;7.27;5.00;;;;;;;;;;5030845;28;20697;-77
2022/12/28 00:21:36;;;;;;;10.77;5.57;;;;;;;;;;5030616;28;20234;-77
2022/12/28 00:24:04;;;;;;;10.37;5.83;;;;;;;;;;5030947;28;20206;-77
2022/12/28 00:26:32;;;;;;;7.00;5.40;;;;;;;;;;5030552;28;20242;-77
2022/12/28 00:28:59;;;;;;;9.27;6.20;;;;;;;;;;5030607;28;20669;-77
2022/12/28 00:31:28;;;;;;;11.23;5.80;;;;;;;;;;5030398;28;20246;-77
2022/12/28 00:33:55;;;;;;;8.00;5.37;;;;;;;;;;5031004;28;20611;-77
2022/12/28 00:36:22;;;;;;;10.43;6.00;;;;;;;;;;5030736;28;20243;-77
2022/12/28 00:38:49;;;;;;;11.57;5.50;;;;;;;;;;5030946;28;20210;-77
2022/12/28 00:41:16;;;;;;;13.60;5.67;;;;;;;;;;5030486;28;20646;-77
2022/12/28 00:43:43;;;;;;;7.90;5.20;;;;;;;;;;5030730;28;20210;-77
2022/12/28 00:46:10;;;;;;;7.33;5.17;;;;;;;;;;5032301;28;20944;-77
2022/12/28 00:48:38;;;;;;;8.63;5.50;;;;;;;;;;5034308;28;20214;-77
2022/12/28 00:51:07;;;;;;;12.20;6.00;;;;;;;;;;5033761;28;20246;-77
2022/12/28 00:53:34;;;;;;;7.73;5.43;;;;;;;;;;5034447;28;20214;-77
2022/12/28 00:56:07;;;;;;;5.70;4.93;;;;;;;;;;5033493;28;20234;-77
2022/12/28 00:58:34;;;;;;;8.30;6.03;;;;;;;;;;5033654;28;20663;-77
2022/12/28 01:01:01;;;;;;;6.97;4.93;;;;;;;;;;5033672;28;20256;-76
2022/12/28 01:03:28;;;;;;;8.73;6.47;;;;;;;;;;5034248;28;20289;-77
2022/12/28 01:05:57;;;;;;;9.83;6.00;;;;;;;;;;5033463;28;20589;-77
2022/12/28 01:08:24;;;;;;;10.70;6.57;;;;;;;;;;5033844;28;20699;-77
2022/12/28 01:10:51;;;;;;;6.60;5.83;;;;;;;;;;5032749;28;20599;-77
2022/12/28 01:13:18;;;;;;;10.67;5.97;;;;;;;;;;5033947;28;20666;-77
2022/12/28 01:15:45;;;;;;;11.07;6.47;;;;;;;;;;5033581;28;20594;-77
2022/12/28 01:18:12;;;;;;;10.50;6.67;;;;;;;;;;5033606;28;20581;-77
2022/12/28 01:20:39;;;;;;;13.00;7.83;;;;;;;;;;5033192;28;20229;-77
2022/12/28 01:23:08;;;;;;;12.87;7.97;;;;;;;;;;5033718;28;20677;-77
2022/12/28 01:25:35;;;;;;;11.93;8.33;;;;;;;;;;5033239;28;20697;-77
2022/12/28 01:28:02;;;;;;;18.60;10.17;;;;;;;;;;5033103;28;20234;-77
2022/12/28 01:30:30;;;;;;;11.70;8.60;;;;;;;;;;5033198;28;20234;-77
2022/12/28 01:32:59;;;;;;;16.47;9.80;;;;;;;;;;5033268;28;20653;-77
2022/12/28 01:35:26;;;;;;;17.00;9.20;;;;;;;;;;5033073;28;20718;-77
2022/12/28 01:37:53;;;;;;;17.70;9.00;;;;;;;;;;5033026;28;20230;-77
2022/12/28 01:40:21;;;;;;;16.30;9.77;;;;;;;;;;5032946;28;20652;-77
2022/12/28 01:42:48;;;;;;;14.77;8.90;;;;;;;;;;5033397;28;20206;-77
2022/12/28 01:45:17;;;;;;;15.67;9.23;;;;;;;;;;5032893;28;20218;-77
2022/12/28 01:47:46;;;;;;;14.73;9.83;;;;;;;;;;5033287;28;20223;-77
2022/12/28 01:50:14;;;;;;;14.67;9.63;;;;;;;;;;5032673;28;20301;-77
2022/12/28 01:52:43;;;;;;;12.10;8.40;;;;;;;;;;5032835;28;20230;-77
2022/12/28 01:55:13;;;;;;;17.63;9.10;;;;;;;;;;5032984;28;20210;-77
2022/12/28 01:57:43;;;;;;;12.40;8.53;;;;;;;;;;5033094;28;20706;-77
2022/12/28 02:00:11;;;;;;;14.03;7.93;;;;;;;;;;5032654;28;20568;-77
2022/12/28 02:02:39;;;;;;;15.40;9.00;;;;;;;;;;5032779;28;20217;-77
2022/12/28 02:05:06;;;;;;;12.33;7.57;;;;;;;;;;5020323;28;20727;-78
2022/12/28 02:07:37;;;;;;;12.40;7.27;;;;;;;;;;5002339;28;20234;-77
2022/12/28 02:10:04;;;;;;;12.03;8.17;;;;;;;;;;5012178;28;20558;-78
2022/12/28 02:12:32;;;;;;;9.37;5.47;;;;;;;;;;5019774;28;20222;-77
2022/12/28 02:15:01;;;;;;;6.90;4.57;;;;;;;;;;5032779;28;20214;-77
2022/12/28 02:17:29;;;;;;;4.23;3.83;;;;;;;;;;5032621;28;20621;-77
2022/12/28 02:19:56;;;;;;;12.83;6.80;;;;;;;;;;5032351;28;20674;-77
2022/12/28 02:22:33;;;;;;;11.93;6.77;;;;;;;;;;5031927;28;20254;-77
2022/12/28 02:25:07;;;;;;;9.47;7.00;;;;;;;;;;5032519;28;20225;-77
2022/12/28 02:27:39;;;;;;;11.00;7.83;;;;;;;;;;5032135;28;20756;-77
2022/12/28 02:30:08;;;;;;;11.63;8.40;;;;;;;;;;5031990;28;20269;-78
2022/12/28 02:32:41;;;;;;;15.77;9.17;;;;;;;;;;5032407;28;20222;-77
2022/12/28 02:35:10;;;;;;;12.43;8.80;;;;;;;;;;5032015;28;20210;-78
2022/12/28 02:37:41;;;;;;;10.33;7.20;;;;;;;;;;5031862;28;20241;-77
2022/12/28 02:40:10;;;;;;;8.03;5.27;;;;;;;;;;5031691;28;20203;-78
2022/12/28 02:42:37;;;;;;;10.60;6.20;;;;;;;;;;5032420;28;20210;-77
2022/12/28 02:50:36;;;;;;;8.13;5.33;;;;;;;;;;4988114;28;20230;-77
2022/12/28 02:53:18;;;;;;;7.00;4.93;;;;;;;;;;5031917;28;20231;-77
2022/12/28 02:56:08;;;;;;;7.43;4.23;;;;;;;;;;5029432;28;20706;-77
2022/12/28 02:58:46;;;;;;;6.67;4.17;;;;;;;;;;5031928;28;20289;-77
2022/12/28 03:01:16;;;;;;;6.60;4.83;;;;;;;;;;5031493;28;20258;-77
2022/12/28 03:03:53;;;;;;;5.20;4.30;;;;;;;;;;5031963;28;20214;-77
2022/12/28 03:09:14;;;;;;;5.33;4.00;;;;;;;;;;5031084;28;20217;-77
2022/12/28 03:11:44;;;;;;;5.03;3.70;;;;;;;;;;5031605;28;20242;-77
2022/12/28 03:14:13;;;;;;;4.03;3.20;;;;;;;;;;5031050;28;20217;-77
2022/12/28 03:33:18;;;;;;;4.67;4.07;;;;;;;;;;5031550;28;20225;-77
2022/12/28 03:35:50;;;;;;;8.13;5.03;;;;;;;;;;5030789;28;20253;-77
2022/12/28 03:38:26;;;;;;;5.27;4.30;;;;;;;;;;5032179;28;20214;-79
2022/12/28 03:40:55;;;;;;;5.73;4.60;;;;;;;;;;5031264;28;20319;-79
2022/12/28 03:43:38;;;;;;;10.23;5.17;;;;;;;;;;5030551;28;20215;-80
2022/12/28 03:46:10;;;;;;;6.20;4.70;;;;;;;;;;5030956;28;20227;-79
2022/12/28 03:48:38;;;;;;;3.37;3.07;;;;;;;;;;5031442;28;20207;-79
2022/12/28 03:51:06;;;;;;;5.50;4.40;;;;;;;;;;5030961;28;20569;-79
2022/12/28 03:53:37;;;;;;;4.73;3.57;;;;;;;;;;5031481;28;20212;-79
2022/12/28 03:56:08;;;;;;;5.07;4.17;;;;;;;;;;5031068;28;20234;-79
2022/12/28 03:58:35;;;;;;;4.93;4.40;;;;;;;;;;5031278;28;20236;-80
2022/12/28 04:01:02;;;;;;;4.77;3.50;;;;;;;;;;5030623;28;20506;-79
2022/12/28 04:03:29;;;;;;;5.83;3.43;;;;;;;;;;5031350;28;20222;-79
2022/12/28 04:05:57;;;;;;;4.77;4.37;;;;;;;;;;5030791;28;20605;-79
2022/12/28 04:08:25;;;;;;;4.90;3.87;;;;;;;;;;5030978;28;20623;-81
2022/12/28 04:10:52;;;;;;;2.77;2.60;;;;;;;;;;5030970;28;20237;-79
2022/12/28 04:13:19;;;;;;;3.73;3.40;;;;;;;;;;5031296;28;20230;-80
2022/12/28 04:15:55;;;;;;;3.23;3.03;;;;;;;;;;5031020;28;20238;-79
2022/12/28 04:18:22;;;;;;;3.30;2.97;;;;;;;;;;5031259;28;20214;-79
2022/12/28 04:20:49;;;;;;;2.80;2.60;;;;;;;;;;5032252;28;20233;-78
2022/12/28 04:23:16;;;;;;;5.40;3.57;;;;;;;;;;5034956;28;20210;-78
2022/12/28 04:25:45;;;;;;;5.57;3.53;;;;;;;;;;5034503;28;20732;-79
2022/12/28 04:28:12;;;;;;;4.67;3.37;;;;;;;;;;5034610;28;20210;-78
2022/12/28 04:30:39;;;;;;;4.13;3.60;;;;;;;;;;5034609;28;20235;-79
2022/12/28 04:33:06;;;;;;;3.50;2.90;;;;;;;;;;5034380;28;20897;-79
2022/12/28 04:35:33;;;;;;;3.30;2.83;;;;;;;;;;5034332;28;20288;-79
2022/12/28 04:38:00;;;;;;;3.47;3.07;;;;;;;;;;5034477;28;20237;-79
2022/12/28 04:40:27;;;;;;;4.60;3.17;;;;;;;;;;5034199;28;20245;-79
2022/12/28 04:42:55;;;;;;;4.73;3.90;;;;;;;;;;5034580;28;20205;-79
2022/12/28 04:45:22;;;;;;;3.80;2.57;;;;;;;;;;5034280;28;20244;-79
2022/12/28 04:47:49;;;;;;;3.43;3.23;;;;;;;;;;5034258;28;20233;-79
2022/12/28 04:50:16;;;;;;;4.23;3.60;;;;;;;;;;5033609;28;20694;-78
2022/12/28 04:52:44;;;;;;;5.67;3.33;;;;;;;;;;5034316;28;20238;-78
2022/12/28 04:55:11;;;;;;;5.20;3.50;;;;;;;;;;5034112;28;20236;-79
2022/12/28 04:57:38;;;;;;;3.23;2.87;;;;;;;;;;5034538;28;20225;-79
2022/12/28 05:00:08;;;;;;;2.63;2.43;;;;;;;;;;5033615;28;20206;-78
2022/12/28 05:02:35;;;;;;;2.43;2.30;;;;;;;;;;5034222;28;20207;-80
2022/12/28 05:05:02;;;;;;;3.93;2.63;;;;;;;;;;5034055;28;20214;-79
2022/12/28 05:07:29;;;;;;;2.90;2.70;;;;;;;;;;5034001;28;20591;-78
2022/12/28 05:09:56;;;;;;;2.60;2.40;;;;;;;;;;5034054;28;20217;-79
2022/12/28 05:12:24;;;;;;;4.13;3.07;;;;;;;;;;5033191;28;20241;-78
2022/12/28 05:14:52;;;;;;;3.50;2.60;;;;;;;;;;5034298;28;20634;-80
2022/12/28 05:17:21;;;;;;;2.83;2.57;;;;;;;;;;5033538;28;20269;-78
2022/12/28 05:19:48;;;;;;;4.00;3.40;;;;;;;;;;5022469;28;20198;-78
2022/12/28 05:22:15;;;;;;;5.27;3.57;;;;;;;;;;5033653;28;20646;-78
2022/12/28 05:24:43;;;;;;;4.03;2.67;;;;;;;;;;5034084;28;20211;-80
2022/12/28 05:27:10;;;;;;;3.30;3.03;;;;;;;;;;5033309;28;20715;-80
2022/12/28 05:29:37;;;;;;;5.67;2.60;;;;;;;;;;5033511;28;20674;-79
2022/12/28 05:32:04;;;;;;;2.70;2.50;;;;;;;;;;5032828;28;20238;-79
2022/12/28 05:34:32;;;;;;;3.90;2.73;;;;;;;;;;5033683;28;20195;-79
2022/12/28 05:36:59;;;;;;;3.43;3.03;;;;;;;;;;5033383;28;20245;-80
2022/12/28 05:39:27;;;;;;;3.57;2.67;;;;;;;;;;5033472;28;20214;-79
2022/12/28 05:41:54;;;;;;;2.77;2.57;;;;;;;;;;5022069;28;20241;-79
2022/12/28 05:44:21;;;;;;;3.07;2.77;;;;;;;;;;5014179;28;20207;-80
2022/12/28 05:46:48;;;;;;;5.23;2.80;;;;;;;;;;5013379;28;20235;-79
2022/12/28 05:49:15;;;;;;;3.00;2.80;;;;;;;;;;5013491;28;20262;-80
2022/12/28 05:51:43;;;;;;;4.57;2.13;;;;;;;;;;5013235;28;20235;-80
2022/12/28 05:54:10;;;;;;;2.50;2.33;;;;;;;;;;5013560;28;20203;-79
2022/12/28 05:56:37;;;;;;;2.40;2.10;;;;;;;;;;5013127;28;20246;-79
2022/12/28 05:59:05;;;;;;;4.13;3.27;;;;;;;;;;5013537;28;20211;-79
2022/12/28 06:01:33;;;;;;;2.90;2.60;;;;;;;;;;5013439;28;20583;-80
2022/12/28 06:04:01;;;;;;;2.80;2.60;;;;;;;;;;5013417;28;20206;-80
2022/12/28 06:06:28;;;;;;;2.33;2.13;;;;;;;;;;5013094;28;20246;-80
2022/12/28 06:08:57;;;;;;;2.40;2.30;;;;;;;;;;5013357;28;20214;-80
2022/12/28 06:11:25;;;;;;;7.83;2.87;;;;;;;;;;5013122;28;20652;-79
2022/12/28 06:13:52;;;;;;;3.33;2.97;;;;;;;;;;5013253;28;20227;-79
2022/12/28 06:16:20;;;;;;;3.27;2.60;;;;;;;;;;5012966;28;20490;-79
2022/12/28 06:18:48;;;;;;;3.17;2.77;;;;;;;;;;5013282;28;20208;-79
2022/12/28 06:21:15;;;;;;;2.20;2.07;;;;;;;;;;5028725;28;20278;-79
2022/12/28 06:23:42;;;;;;;4.47;1.93;;;;;;;;;;5033075;28;20199;-79
2022/12/28 06:26:12;;;;;;;2.80;2.60;;;;;;;;;;5032521;28;20234;-79
2022/12/28 06:28:39;;;;;;;4.43;2.83;;;;;;;;;;5032361;28;20207;-79
2022/12/28 06:31:07;;;;;;;2.97;2.63;;;;;;;;;;5032317;28;20231;-80
2022/12/28 06:33:34;;;;;;;2.47;2.27;;;;;;;;;;5032486;28;20734;-79
2022/12/28 06:36:01;;;;;;;2.90;2.57;;;;;;;;;;5032110;28;20238;-79
2022/12/28 06:38:31;;;;;;;3.23;2.60;;;;;;;;;;5032429;28;20210;-78
2022/12/28 06:41:02;;;;;;;5.80;3.53;;;;;;;;;;5032269;28;20227;-79
2022/12/28 06:43:32;;;;;;;2.80;2.40;;;;;;;;;;5032011;28;20210;-79
2022/12/28 06:46:00;;;;;;;7.30;2.70;;;;;;;;;;5032138;28;20667;-79
2022/12/28 06:48:27;;;;;;;5.23;2.63;;;;;;;;;;5032364;28;20306;-79
2022/12/28 06:50:55;;;;;;;3.73;2.80;;;;;;;;;;5032128;28;20245;-78
2022/12/28 06:53:22;;;;;;;4.13;2.53;;;;;;;;;;5032552;28;20273;-78
2022/12/28 06:55:52;;;;;;;2.47;2.27;;;;;;;;;;5032018;28;20234;-78
2022/12/28 06:58:19;;;;;;;2.60;2.40;;;;;;;;;;5032292;28;20229;-79
2022/12/28 07:00:48;;;;;;;2.17;2.07;;;;;;;;;;5031921;28;20231;-78
2022/12/28 07:03:15;;;;;;;2.97;2.60;;;;;;;;;;5032176;28;20614;-79
2022/12/28 07:05:42;;;;;;;2.83;2.13;;;;;;;;;;5031737;28;20241;-79
2022/12/28 07:08:10;;;;;;;2.17;2.07;;;;;;;;;;5031934;28;20581;-78
2022/12/28 07:10:37;;;;;;;2.80;2.30;;;;;;;;;;5031585;28;20230;-78
2022/12/28 07:13:04;;;;;;;4.73;2.80;;;;;;;;;;5032150;28;20233;-78
2022/12/28 07:15:31;;;;;;;4.00;2.53;;;;;;;;;;5031565;28;20611;-79
2022/12/28 07:17:59;;;;;;;3.43;2.60;;;;;;;;;;5031923;28;20288;-78
2022/12/28 07:20:26;;;;;;;3.90;2.93;;;;;;;;;;5031475;28;20280;-79
2022/12/28 07:22:53;;;;;;;3.10;2.53;;;;;;;;;;5032209;28;20260;-79
2022/12/28 07:25:21;;;;;;;4.30;3.20;;;;;;;;;;5031769;28;20210;-78
2022/12/28 07:27:48;;;;;;;5.17;2.93;;;;;;;;;;5032058;28;20227;-78
2022/12/28 07:30:15;;;;;;;4.23;2.83;;;;;;;;;;5031582;28;20256;-78
2022/12/28 07:32:42;;;;;;;5.30;2.93;;;;;;;;;;5031890;28;20230;-79
2022/12/28 07:35:11;;;;;;;3.60;2.10;;;;;;;;;;5031610;28;20575;-78
2022/12/28 07:37:38;;;;;;;2.83;2.60;;;;;;;;;;5031682;28;20723;-79
2022/12/28 07:40:05;;;;;;;4.60;2.47;;;;;;;;;;5031440;28;20214;-78
2022/12/28 07:42:32;;;;;;;2.60;2.40;;;;;;;;;;5031783;28;20202;-78
2022/12/28 07:44:59;;;;;;;6.07;2.70;;;;;;;;;;5031870;28;20217;-79
2022/12/28 07:47:26;;;;;;;3.93;2.00;;;;;;;;;;5028210;28;20672;-78
2022/12/28 07:49:53;;;;;;;4.87;2.73;;;;;;;;;;5012298;28;20242;-78
2022/12/28 07:52:22;;;;;;;2.43;2.23;;;;;;;;;;5011665;28;20656;-79
2022/12/28 07:54:49;;;;;;;8.87;2.43;;;;;;;;;;5013683;28;20211;-78
2022/12/28 07:57:16;;;;;;;3.50;2.60;;;;;;;;;;5015428;28;20243;-79
2022/12/28 07:59:43;;;;;;;2.27;2.07;;;;;;;;;;5015737;28;20257;-79
2022/12/28 08:02:10;;;;;;;1.97;1.87;;;;;;;;;;5015382;28;20239;-80
2022/12/28 08:04:37;;;;;;;3.40;2.57;;;;;;;;;;5031993;28;20226;-79
2022/12/28 08:07:04;;;;;;;2.53;2.13;;;;;;;;;;5035092;28;20238;-79
2022/12/28 08:09:32;;;;;;;3.60;2.63;;;;;;;;;;5030740;28;20538;-79
2022/12/28 08:12:01;;;;;;;3.07;2.60;;;;;;;;;;5015642;28;20246;-80
2022/12/28 08:14:28;;;;;;;5.50;2.57;;;;;;;;;;5018290;28;20228;-79
2022/12/28 08:16:55;;;;;;;2.30;2.17;;;;;;;;;;5017077;28;20243;-80
2022/12/28 08:19:22;;;;;;;4.67;2.33;;;;;;;;;;5016284;28;20199;-79
2022/12/28 08:21:49;;;;;;;4.23;3.07;;;;;;;;;;5015619;28;20870;-80
2022/12/28 08:24:17;;;;;;;2.73;2.53;;;;;;;;;;5016659;28;20215;-79
2022/12/28 08:26:46;;;;;;;4.07;2.00;;;;;;;;;;5015984;28;20231;-80
2022/12/28 08:29:15;;;;;;;2.40;2.10;;;;;;;;;;5016317;28;20218;-80
2022/12/28 08:31:43;;;;;;;2.03;1.87;;;;;;;;;;5016061;28;20289;-79
2022/12/28 08:34:12;;;;;;;2.20;2.00;;;;;;;;;;5016303;28;20656;-80
2022/12/28 08:36:39;;;;;;;2.00;1.90;;;;;;;;;;5015226;28;20247;-79
2022/12/28 08:39:06;;;;;;;2.70;2.30;;;;;;;;;;5015627;28;20207;-80
2022/12/28 08:41:33;;;;;;;2.37;2.13;;;;;;;;;;5015898;28;20227;-80
2022/12/28 08:44:02;;;;;;;1.97;1.87;;;;;;;;;;5015868;28;20254;-80
2022/12/28 08:46:29;;;;;;;2.77;2.20;;;;;;;;;;5015584;28;20243;-80
2022/12/28 08:48:57;;;;;;;7.93;4.77;;;;;;;;;;5015576;28;20273;-79
2022/12/28 08:51:25;;;;;;;3.83;3.43;;;;;;;;;;5015625;28;20231;-80
2022/12/28 08:53:52;;;;;;;4.03;2.33;;;;;;;;;;5015813;28;20236;-79
2022/12/28 08:56:20;;;;;;;2.53;2.33;;;;;;;;;;5015105;28;20621;-80
2022/12/28 08:58:48;;;;;;;8.00;2.67;;;;;;;;;;5015378;28;20211;-80
2022/12/28 09:01:17;;;;;;;5.30;3.50;;;;;;;;;;5014643;28;20235;-80
2022/12/28 09:03:45;;;;;;;2.13;1.97;;;;;;;;;;5014774;28;20215;-80
2022/12/28 09:06:13;;;;;;;2.13;1.93;;;;;;;;;;5013400;28;20297;-80
2022/12/28 09:08:40;;;;;;;2.10;1.97;;;;;;;;;;5014817;28;20342;-80
2022/12/28 09:11:09;;;;;;;2.73;2.53;;;;;;;;;;5014083;28;20258;-80
2022/12/28 09:13:36;;;;;;;3.13;2.30;;;;;;;;;;5014678;28;20262;-79
2022/12/28 09:16:05;;;;;;;5.77;2.60;;;;;;;;;;5013511;28;20242;-80
2022/12/28 09:18:33;;;;;;;6.03;2.77;;;;;;;;;;5014167;28;20212;-79
2022/12/28 09:21:04;;;;;;;3.03;2.23;;;;;;;;;;5014080;28;20286;-79
2022/12/28 09:23:32;;;;;;;2.30;2.10;;;;;;;;;;5014595;28;20204;-80
2022/12/28 09:26:03;;;;;;;2.37;2.17;;;;;;;;;;5013880;28;20227;-80
2022/12/28 09:28:30;;;;;;;4.53;3.00;;;;;;;;;;5014325;28;20203;-80
2022/12/28 09:30:57;;;;;;;3.53;2.67;;;;;;;;;;5013844;28;20923;-80
2022/12/28 09:36:10;;;;;;;2.50;2.27;;;;;;;;;;5013628;28;20238;-80
2022/12/28 09:38:37;;;;;;;4.37;2.23;;;;;;;;;;5014628;28;20238;-80
2022/12/28 09:41:10;;;;;;;2.57;2.17;;;;;;;;;;5013720;28;20607;-78
2022/12/28 09:43:40;;;;;;;2.70;2.00;;;;;;;;;;5014089;28;20562;-80
2022/12/28 09:46:08;;;;;;;1.77;1.67;;;;;;;;;;5013645;28;20238;-79
2022/12/28 09:48:35;;;;;;;2.30;2.10;;;;;;;;;;5013696;28;20258;-79
2022/12/28 09:51:03;;;;;;;2.07;1.87;;;;;;;;;;5013271;28;20257;-80
2022/12/28 09:53:33;;;;;;;2.43;2.17;;;;;;;;;;5013944;28;20227;-80
2022/12/28 09:56:02;;;;;;;2.57;2.07;;;;;;;;;;5013073;28;20235;-81
2022/12/28 09:58:30;;;;;;;5.27;2.10;;;;;;;;;;5013758;28;20212;-80
2022/12/28 10:00:58;;;;;;;3.23;2.43;;;;;;;;;;5013083;28;20731;-81
2022/12/28 10:03:27;;;;;;;3.67;2.10;;;;;;;;;;5013811;28;20203;-81
2022/12/28 10:05:54;;;;;;;5.87;2.23;;;;;;;;;;5013265;28;20238;-80
2022/12/28 10:08:23;;;;;;;1.93;1.83;;;;;;;;;;5032354;28;20206;-80
2022/12/28 10:10:52;;;;;;;1.83;1.73;;;;;;;;;;5033023;28;20237;-79
2022/12/28 10:13:20;;;;;;;2.00;1.90;;;;;;;;;;5032994;28;20223;-80
2022/12/28 10:15:47;;;;;;;1.67;1.57;;;;;;;;;;5032959;28;20234;-80
2022/12/28 10:18:15;;;;;;;5.07;1.83;;;;;;;;;;5032822;28;20714;-80
2022/12/28 10:20:43;;;;;;;1.57;1.57;;;;;;;;;;5032810;28;20603;-80
2022/12/28 10:23:13;;;;;;;2.47;2.07;;;;;;;;;;5032910;28;20215;-81
2022/12/28 10:25:40;;;;;;;5.53;2.00;;;;;;;;;;5032563;28;20241;-81
2022/12/28 10:28:09;;;;;;;1.90;1.80;;;;;;;;;;5023682;28;20199;-80
2022/12/28 10:30:45;;;;;;;4.77;1.97;;;;;;;;;;5013084;28;20257;-81
2022/12/28 10:33:16;;;;;;;1.97;1.87;;;;;;;;;;5027085;28;20217;-80
2022/12/28 10:35:48;;;;;;;2.00;1.90;;;;;;;;;;5032404;28;20230;-79
2022/12/28 10:38:20;;;;;;;3.10;2.23;;;;;;;;;;5032467;28;20211;-80
2022/12/28 10:40:54;;;;;;;2.37;1.93;;;;;;;;;;5032440;28;20234;-80
2022/12/28 10:43:22;;;;;;;1.90;1.70;;;;;;;;;;5032859;28;20218;-79
2022/12/28 10:45:50;;;;;;;1.93;1.60;;;;;;;;;;4992952;28;20231;-80
2022/12/28 10:48:19;;;;;;;2.83;1.60;;;;;;;;;;4993222;28;20219;-80
2022/12/28 10:50:51;;;;;;;4.33;1.90;;;;;;;;;;5020315;28;20231;-81
2022/12/28 10:53:19;;;;;;;2.00;1.80;;;;;;;;;;5032640;28;20214;-82
2022/12/28 10:55:47;;;;;;;2.07;1.87;;;;;;;;;;5032171;28;20237;-82
2022/12/28 10:58:20;;;;;;;3.17;1.67;;;;;;;;;;5032835;28;20214;-81
2022/12/28 11:00:54;;;;;;;2.30;2.10;;;;;;;;;;5033321;28;20233;-81
2022/12/28 11:03:24;;;;;;;2.27;1.90;;;;;;;;;;5026529;28;20211;-80
2022/12/28 11:06:08;;;;;;;3.53;1.57;;;;;;;;;;5012642;28;20231;-80
2022/12/28 11:08:35;;;;;;;3.67;2.50;;;;;;;;;;4993583;28;20299;-81
2022/12/28 11:11:02;;;;;;;2.30;1.90;;;;;;;;;;4992995;28;20274;-81
2022/12/28 11:13:29;;;;;;;1.50;1.40;;;;;;;;;;4993657;28;20204;-80
2022/12/28 11:15:58;;;;;;;1.60;1.50;;;;;;;;;;4992645;28;20311;-80
2022/12/28 11:18:25;;;;;;;2.90;1.97;;;;;;;;;;4993185;28;20488;-79
2022/12/28 11:20:54;;;;;;;2.00;1.90;;;;;;;;;;4994671;28;20247;-80
2022/12/28 11:23:22;;;;;;;3.37;2.33;;;;;;;;;;5012753;28;20199;-80
2022/12/28 11:25:49;;;;;;;2.07;1.57;;;;;;;;;;5022242;28;20238;-81
2022/12/28 11:28:17;;;;;;;2.00;1.90;;;;;;;;;;5032154;28;20218;-80
2022/12/28 11:30:44;;;;;;;2.83;2.23;;;;;;;;;;5031931;28;20230;-81
2022/12/28 11:33:25;;;;;;;3.40;2.23;;;;;;;;;;5032142;28;20210;-80
2022/12/28 11:35:53;;;;;;;2.43;1.80;;;;;;;;;;5031430;28;20226;-80
2022/12/28 11:38:40;;;;;;;4.53;1.73;;;;;;;;;;5032050;28;20207;-80
2022/12/28 11:41:10;;;;;;;2.17;2.00;;;;;;;;;;5031840;28;20241;-81
2022/12/28 11:44:01;;;;;;;4.50;1.87;;;;;;;;;;5032062;28;20566;-80
2022/12/28 11:46:39;;;;;;;3.70;2.73;;;;;;;;;;5032044;28;20288;-80
2022/12/28 11:49:23;;;;;;;2.40;1.70;;;;;;;;;;5031938;28;20210;-80
2022/12/28 11:52:19;;;;;;;2.63;1.90;;;;;;;;;;5032173;28;20265;-80
2022/12/28 11:54:51;;;;;;;1.70;1.57;;;;;;;;;;5031831;28;20258;-80
2022/12/28 11:57:33;;;;;;;1.20;1.20;;;;;;;;;;5031361;28;20321;-81
2022/12/28 12:00:15;;;;;;;3.43;1.83;;;;;;;;;;5032258;28;20270;-80
2022/12/28 12:02:48;;;;;;;1.90;1.80;;;;;;;;;;5032619;28;20230;-79
2022/12/28 12:05:33;;;;;;;1.80;1.70;;;;;;;;;;5031576;28;20183;-80
2022/12/28 12:08:02;;;;;;;1.70;1.60;;;;;;;;;;5032329;28;20237;-80
2022/12/28 12:10:32;;;;;;;1.50;1.40;;;;;;;;;;5033329;28;20235;-80
2022/12/28 12:12:59;;;;;;;3.07;1.73;;;;;;;;;;5037925;28;20207;-79
2022/12/28 12:15:40;;;;;;;2.30;2.10;;;;;;;;;;5031455;28;20242;-80
2022/12/28 12:18:08;;;;;;;1.70;1.60;;;;;;;;;;5032223;28;20217;-81
2022/12/28 12:20:47;;;;;;;3.03;1.90;;;;;;;;;;5032406;28;20253;-81
2022/12/28 12:23:22;;;;;;;1.63;1.53;;;;;;;;;;5033166;28;20202;-81
2022/12/28 12:25:53;;;;;;;1.83;1.47;;;;;;;;;;5033384;28;20230;-81
2022/12/28 12:28:27;;;;;;;6.90;2.03;;;;;;;;;;5032367;28;20302;-80
2022/12/28 12:30:55;;;;;;;3.17;2.00;;;;;;;;;;5031313;28;20241;-81
2022/12/28 12:33:25;;;;;;;1.67;1.57;;;;;;;;;;5031645;28;20206;-80
2022/12/28 12:35:59;;;;;;;2.40;1.83;;;;;;;;;;5030926;28;20231;-81
2022/12/28 12:38:32;;;;;;;2.70;2.00;;;;;;;;;;5031868;28;20191;-81
2022/12/28 12:41:06;;;;;;;2.73;1.70;;;;;;;;;;5031493;28;20598;-80
2022/12/28 12:43:40;;;;;;;2.10;2.00;;;;;;;;;;5036053;28;20672;-81
2022/12/28 12:46:18;;;;;;;3.60;2.20;;;;;;;;;;5038679;28;20235;-81
2022/12/28 12:48:51;;;;;;;1.60;1.50;;;;;;;;;;5044113;28;20206;-80
2022/12/28 12:51:22;;;;;;;2.47;1.70;;;;;;;;;;5035328;28;20260;-80
2022/12/28 12:54:01;;;;;;;2.20;1.70;;;;;;;;;;5038286;28;20198;-79
2022/12/28 12:56:39;;;;;;;1.80;1.67;;;;;;;;;;5048214;28;20296;-81
2022/12/28 12:59:19;;;;;;;3.03;1.83;;;;;;;;;;5036254;28;20199;-80
2022/12/28 13:01:49;;;;;;;2.60;2.40;;;;;;;;;;5035751;28;20300;-81
2022/12/28 13:04:19;;;;;;;2.40;2.20;;;;;;;;;;5035706;28;20683;-80
2022/12/28 13:06:46;;;;;;;2.33;2.10;;;;;;;;;;5035557;28;20239;-79
2022/12/28 13:09:17;;;;;;;5.00;2.60;;;;;;;;;;5035335;28;20218;-79
2022/12/28 13:11:44;;;;;;;2.87;2.30;;;;;;;;;;5035207;28;20237;-80
2022/12/28 13:14:17;;;;;;;3.47;2.37;;;;;;;;;;5034836;28;20300;-80
2022/12/28 13:16:47;;;;;;;4.97;3.17;;;;;;;;;;5036352;28;20238;-79
2022/12/28 13:19:17;;;;;;;5.67;3.00;;;;;;;;;;5035701;28;20203;-80
2022/12/28 13:21:45;;;;;;;4.00;2.70;;;;;;;;;;5034859;28;20234;-80
2022/12/28 13:24:24;;;;;;;4.13;2.30;;;;;;;;;;5035157;28;20214;-81
2022/12/28 13:26:51;;;;;;;2.80;2.50;;;;;;;;;;5034444;28;20288;-79
2022/12/28 13:29:19;;;;;;;3.43;2.27;;;;;;;;;;5034531;28;20585;-80
2022/12/28 13:31:49;;;;;;;2.73;2.33;;;;;;;;;;5034447;28;20240;-80
2022/12/28 13:34:17;;;;;;;2.73;2.03;;;;;;;;;;5035225;28;20329;-79
2022/12/28 13:36:48;;;;;;;2.60;2.20;;;;;;;;;;5034206;28;20234;-81
2022/12/28 13:39:15;;;;;;;2.07;1.90;;;;;;;;;;5034360;28;20215;-80
2022/12/28 13:41:47;;;;;;;1.70;1.60;;;;;;;;;;5033740;28;20734;-80
2022/12/28 13:44:35;;;;;;;2.10;1.90;;;;;;;;;;5034584;28;20222;-81
2022/12/28 13:47:05;;;;;;;1.90;1.80;;;;;;;;;;5033507;28;20255;-80
2022/12/28 13:49:34;;;;;;;2.87;1.93;;;;;;;;;;5034028;28;20801;-81
2022/12/28 13:52:01;;;;;;;4.60;2.40;;;;;;;;;;5033647;28;20242;-82
2022/12/28 13:54:28;;;;;;;1.90;1.80;;;;;;;;;;5034367;28;20721;-80
2022/12/28 13:56:57;;;;;;;1.70;1.60;;;;;;;;;;5032628;28;20608;-81
2022/12/28 13:59:24;;;;;;;1.73;1.63;;;;;;;;;;5033414;28;20675;-79
2022/12/28 14:01:52;;;;;;;2.33;1.90;;;;;;;;;;5032969;28;20280;-80
2022/12/28 14:04:20;;;;;;;1.93;1.77;;;;;;;;;;5033870;28;20241;-80
2022/12/28 14:06:47;;;;;;;2.40;2.03;;;;;;;;;;5032912;28;20620;-79
2022/12/28 14:09:15;;;;;;;2.23;1.97;;;;;;;;;;5033479;28;20207;-79
2022/12/28 14:11:44;;;;;;;2.10;1.90;;;;;;;;;;5033487;28;20238;-80
2022/12/28 14:14:13;;;;;;;2.30;2.10;;;;;;;;;;5030125;28;20250;-80
2022/12/28 14:16:40;;;;;;;1.90;1.80;;;;;;;;;;5018377;28;20239;-80
2022/12/28 14:19:08;;;;;;;1.30;1.30;;;;;;;;;;5016594;28;20238;-79
2022/12/28 14:21:36;;;;;;;2.97;2.13;;;;;;;;;;5013011;28;20242;-80
2022/12/28 14:24:04;;;;;;;2.13;2.00;;;;;;;;;;5013653;28;20188;-80
2022/12/28 14:26:31;;;;;;;2.20;2.00;;;;;;;;;;5013706;28;20246;-80
2022/12/28 14:28:58;;;;;;;2.10;2.00;;;;;;;;;;5013728;28;20215;-80
2022/12/28 14:31:28;;;;;;;1.97;1.87;;;;;;;;;;5012931;28;20235;-80
2022/12/28 14:33:56;;;;;;;3.43;2.20;;;;;;;;;;5013582;28;20219;-79
2022/12/28 14:36:26;;;;;;;4.03;2.07;;;;;;;;;;5012480;28;20246;-80
2022/12/28 14:38:55;;;;;;;6.00;3.60;;;;;;;;;;5012823;28;20207;-80
2022/12/28 14:41:24;;;;;;;4.87;3.97;;;;;;;;;;5012622;28;20242;-80
2022/12/28 14:43:52;;;;;;;4.10;2.37;;;;;;;;;;5013371;28;20612;-80
2022/12/28 14:46:28;;;;;;;2.00;1.90;;;;;;;;;;5012627;28;20715;-80
2022/12/28 14:48:56;;;;;;;1.90;1.80;;;;;;;;;;5012532;28;20206;-79
2022/12/28 14:51:25;;;;;;;3.57;2.17;;;;;;;;;;5012449;28;20235;-80
2022/12/28 14:54:15;;;;;;;2.07;1.97;;;;;;;;;;5008791;28;20199;-80
2022/12/28 14:56:42;;;;;;;3.67;2.00;;;;;;;;;;5000483;28;20657;-80
2022/12/28 14:59:16;;;;;;;5.80;2.07;;;;;;;;;;5018561;28;20604;-79
2022/12/28 15:01:44;;;;;;;2.10;1.57;;;;;;;;;;5011689;28;20242;-79
2022/12/28 15:04:25;;;;;;;4.50;2.00;;;;;;;;;;5011789;28;20234;-79
2022/12/28 15:06:52;;;;;;;3.63;2.20;;;;;;;;;;5026796;28;20284;-79
2022/12/28 15:09:19;;;;;;;2.20;2.00;;;;;;;;;;5031391;28;20265;-79
2022/12/28 15:11:46;;;;;;;2.17;1.97;;;;;;;;;;5011585;28;20247;-80
2022/12/28 15:14:14;;;;;;;1.87;1.73;;;;;;;;;;5017161;28;20197;-79
2022/12/28 15:16:41;;;;;;;1.83;1.60;;;;;;;;;;5031086;28;20242;-79
2022/12/28 15:19:08;;;;;;;3.17;1.70;;;;;;;;;;5024824;28;20203;-79
2022/12/28 15:21:36;;;;;;;2.80;1.80;;;;;;;;;;5011966;28;20239;-81